Nearby METAR Reports

 

KCLM - Port Angeles, Washington, USA
Distance from station: W 17mi, 27km
Updated: Wed, 21-Feb-2018 4:06pm PST
Snow, Freezing, Fog, Overcast
Snow, Freezing, Fog, Overcast
 Wind from E
Wind: E 7 mph , 11 km/h
Temperature: 30°F , -1°C
Wind Chill: 23°F , -5°C
Dew Point: 28°F , -2°C
Humidity: 93%
Barometer: 30.21 inHg , 1023 hPa
Summary: Snow, Freezing, Fog
Clouds: Overcast
Visibility: 1/2 mile , 0.8 km
Cloud details: Overcast 1300 ft
2018/02/22 00:06 KCLM 220006Z AUTO 10006KT 1/2SM SN FZFG VV013 M01/M02 A3021 RMK AO2 P0001 T10111017
CWQK - Race Rocks Autob, British Columbia, Canada
Distance from station: NW 23mi, 36km
Updated: Tue, 20-Feb-2018 7:00am PST
NOT Current

 Wind from E
Wind: E 16 mph , 26 km/h
Temperature: 34°F , 1°C
Wind Chill: 24°F , -4°C
Dew Point: 23°F , -5°C
Humidity: 65%
2018/02/20 15:00 CWQK 201500Z AUTO 08014KT 01/M05 RMK AO1 PK WND 08017/1453 SLP211 T00051052 56006
 
KNUW - Whidbey Is. Nas, Washington, USA
Distance from station: NE 28mi, 45km
Updated: Wed, 21-Feb-2018 3:56pm PST
Light snow, Mist, Overcast
Light snow, Mist, Overcast
 Wind from SE
Wind: SE 8 mph , 13 km/h
Temperature: 34°F , 1°C
Wind Chill: 27°F , -3°C
Dew Point: 27°F , -3°C
Humidity: 75%
Barometer: 30.29 inHg , 1025.7 hPa
Summary: Light snow, Mist
Clouds: Overcast
Visibility: 2 miles , 3 km
Cloud details: Partly cloudy 1000 ft
Mostly cloudy 2300 ft
Overcast 3000 ft
2018/02/21 23:56 KNUW 212356Z 13007KT 2SM -SN BR SCT010 BKN023 OVC030 01/M03 A3029 RMK AO2 SLP256 P0000 60000 T00061028 10028 20006 58014 $
KFHR - Friday Harbor, Washington, USA
Distance from station: N 29mi, 46km
Updated: Wed, 21-Feb-2018 3:53pm PST
Heavy snow, Freezing, Fog, Overcast
Heavy snow, Freezing, Fog, Overcast
 Wind from varies
Wind: varies 3 mph , 6 km/h
Temperature: 30°F , -1°C
Dew Point: 28°F , -2°C
Humidity: 93%
Barometer: 30.25 inHg , 1024.4 hPa
Summary: Heavy snow, Freezing, Fog
Clouds: Overcast
Visibility: 1/4 mile , 0.4 km
Cloud details: Overcast 400 ft
2018/02/21 23:53 KFHR 212353Z AUTO VRB03KT 1/4SM +SN FZFG VV004 M01/M02 A3025 RMK AO2 SLP244 P0003 60003 T10061017 10022 21011 58010
 
KBVS - Burlington/Mt V, Washington, USA
Distance from station: NE 41mi, 66km
Updated: Wed, 21-Feb-2018 4:15pm PST
Mist, Clear
Mist, Clear
 Wind from SE
Wind: SE 6 mph , 9 km/h
Temperature: 30°F , -1°C
Wind Chill: 24°F , -4°C
Dew Point: 27°F , -3°C
Humidity: 86%
Barometer: 30.25 inHg , 1024.4 hPa
Summary: Mist
Clouds: Clear
Visibility: 5 miles , 8 km
2018/02/22 00:15 KBVS 220015Z AUTO 13005KT 5SM BR CLR M01/M03 A3025 RMK A01
KPAE - Everett, Washington, USA
Distance from station: ESE 42mi, 67km
Updated: Wed, 21-Feb-2018 4:27pm PST
Light snow, Overcast
Light snow, Overcast
 Wind from varies
Wind: varies 3 mph , 6 km/h
Temperature: 30°F , -1°C
Dew Point: 21°F , -6°C
Humidity: 69%
Barometer: 30.22 inHg , 1023.4 hPa
Summary: Light Snow
Clouds: Overcast
Visibility: 2 1/2 miles , 4 km
Cloud details: Mostly cloudy 900 ft
Overcast 5500 ft
2018/02/22 00:27 KPAE 220027Z VRB03KT 2 1/2SM -SN BKN009 OVC055 M01/M06 A3022 RMK AO2 P0000 T10061056
 
KORS - Eastsound/Orcas, Washington, USA
Distance from station: NNE 42mi, 68km
Updated: Wed, 21-Feb-2018 4:15pm PST
Light snow, Overcast
Light snow, Overcast
 Wind from S
Wind: S 6 mph , 9 km/h
Temperature: 32°F , 0°C
Wind Chill: 26°F , -3°C
Dew Point: 30°F , -1°C
Humidity: 93%
Barometer: 30.23 inHg , 1023.7 hPa
Summary: Light Snow
Clouds: Overcast
Visibility: 1/2 mile , 0.8 km
Cloud details: Overcast 300 ft
2018/02/22 00:15 KORS 220015Z AUTO 17005KT 1/2SM -SN OVC003 M00/M01 A3023 RMK AO2
KAWO - Arlington Muni, Washington, USA
Distance from station: E 45mi, 72km
Updated: Wed, 21-Feb-2018 3:56pm PST
Overcast
Overcast
 Wind from SSW
Wind: SSW 8 mph , 13 km/h
Temperature: 32°F , 0°C
Wind Chill: 25°F , -4°C
Dew Point: 19°F , -7°C
Humidity: 60%
Barometer: 30.26 inHg , 1024.7 hPa
Clouds: Overcast
Visibility: 10 miles , 16 km
Cloud details: Overcast 4700 ft
2018/02/21 23:56 KAWO 212356Z AUTO 20007KT 10SM OVC047 00/M07 A3026 RMK AO2 SLP253 T00001067 10017 21028 56018 FZRANO
 
KPWT - Bremerton Ntnl, Washington, USA
Distance from station: SSE 46mi, 73km
Updated: Wed, 21-Feb-2018 4:29pm PST
Overcast
Overcast
 Wind from SSW
Wind: SSW 6 mph , 9 km/h
Temperature: 32°F , 0°C
Wind Chill: 26°F , -3°C
Dew Point: 27°F , -3°C
Humidity: 80%
Barometer: 30.22 inHg , 1023.4 hPa
Clouds: Overcast
Visibility: 10 miles , 16 km
Cloud details: Mostly cloudy 2100 ft
Overcast 3200 ft
2018/02/22 00:29 KPWT 220029Z AUTO 21005KT 10SM BKN021 OVC032 00/M03 A3022 RMK AO2 FZRANO